This is the latest recevied weather packets stored in our database for station/object F4MLU-13. If no packets are shown the sender has not sent any weather packets the latest 10 day(s).
| Time | Temp. | Humidity | Pressure | Rain* | Wind** | Luminosity | Snow |
|---|---|---|---|---|---|---|---|
| 1777957257 | 8.89° C | 99% | - | 0 mm | - | - | - |
| 1777956027 | 8.89° C | 99% | - | 0 mm | - | - | - |
| 1777950647 | 7.78° C | 99% | - | 0 mm | - | - | - |
| 1777948867 | 7.22° C | 99% | - | 0 mm | - | - | - |
| 1777947627 | 7.22° C | 99% | - | 0 mm | - | - | - |
| 1777941627 | 8.33° C | 99% | - | 0 mm | - | - | - |
| 1777941067 | 8.33° C | 99% | - | 0 mm | - | - | - |
| 1777939227 | 8.89° C | 99% | - | 0 mm | - | - | - |
| 1777937428 | 9.44° C | 98% | - | 0 mm | - | - | - |
| 1777936828 | 10° C | 98% | - | 0 mm | - | - | - |
| 1777929028 | 10.56° C | 97% | - | 0 mm | - | - | - |
| 1777924848 | 10.56° C | 96% | - | 0 mm | - | - | - |
| 1777923628 | 10° C | 97% | - | 0 mm | - | - | - |
| 1777922448 | 10° C | 96% | - | 0 mm | - | - | - |
| 1777918828 | 11.11° C | 95% | - | 2.03 mm | - | - | - |
| 1777916428 | 11.11° C | 93% | - | 6.1 mm | - | - | - |
| 1777915828 | 11.11° C | 94% | - | 6.1 mm | - | - | - |
| 1777911028 | 14.44° C | 91% | - | 0 mm | - | - | - |
| 1777908648 | 15.56° C | 86% | - | 0 mm | - | - | - |
| 1777902649 | 15° C | 90% | - | 2.03 mm | - | - | - |
| 1777899629 | 12.78° C | 94% | - | 6.1 mm | - | - | - |
| 1777891829 | 20° C | 72% | - | 0 mm | - | - | - |
| 1777891230 | 20° C | 72% | - | 0 mm | - | - | - |
| 1777887680 | 21.67° C | 67% | - | 0 mm | - | - | - |
| 1777885229 | 20° C | 71% | - | 0 mm | - | - | - |
* Rain latest hour (hover to see other rain measurements)
** Current wind speed in m/s (hover to see current wind gust speed)